createdAt,value
2019-03-16T00:01:15.480Z,84.2
2019-03-16T00:06:20.842Z,84.3
2019-03-16T00:11:26.348Z,84.4
2019-03-16T00:16:31.546Z,84
2019-03-16T00:21:37.670Z,83.9
2019-03-16T00:26:43.354Z,82.3
2019-03-16T00:31:47.312Z,82.4
2019-03-16T00:36:52.557Z,82.7
2019-03-16T00:41:57.893Z,81.3
2019-03-16T00:47:01.521Z,81.2
2019-03-16T00:52:07.066Z,80.4
2019-03-16T00:57:12.282Z,78.3
2019-03-16T01:02:32.657Z,76.8
2019-03-16T01:07:26.842Z,76.8
2019-03-16T01:12:31.920Z,75.3
2019-03-16T01:17:36.947Z,73.9
2019-03-16T01:22:42.577Z,73.3
2019-03-16T01:27:47.996Z,72.1
2019-03-16T01:32:53.359Z,72
2019-03-16T01:37:58.421Z,70.9
2019-03-16T01:43:02.231Z,70.1
2019-03-16T01:48:07.416Z,69.3
2019-03-16T01:53:12.960Z,69.3
2019-03-16T01:58:18.164Z,68.6
2019-03-16T02:03:22.032Z,68.4
2019-03-16T02:08:27.508Z,68
2019-03-16T02:13:32.869Z,67.4
2019-03-16T02:23:41.698Z,65.5
2019-03-16T02:28:46.948Z,65
2019-03-16T02:33:52.464Z,64.4
2019-03-16T02:38:58.139Z,64.8
2019-03-16T02:44:03.512Z,62.9
2019-03-16T02:49:08.863Z,62.6
2019-03-16T02:54:14.470Z,61.5
2019-03-16T02:59:19.896Z,60.3
2019-03-16T03:04:25.200Z,59.6
2019-03-16T03:09:30.926Z,59.2
2019-03-16T03:14:36.263Z,58.5
2019-03-16T03:19:41.281Z,58.6
2019-03-16T03:24:47.430Z,58.3
2019-03-16T03:29:56.992Z,58.3
2019-03-16T03:35:01.575Z,58.7
2019-03-16T03:40:07.184Z,58.6
2019-03-16T03:45:12.972Z,58.1
2019-03-16T03:50:18.399Z,58
2019-03-16T03:55:23.769Z,57.7
2019-03-16T04:00:27.626Z,57.4
2019-03-16T04:05:33.308Z,57.9
2019-03-16T04:10:38.386Z,57.8
2019-03-16T04:15:44.903Z,58
2019-03-16T04:20:50.019Z,59
2019-03-16T04:25:55.361Z,63.1
2019-03-16T04:30:59.668Z,67.8
2019-03-16T04:36:05.168Z,67.8
2019-03-16T04:41:10.382Z,67.4
2019-03-16T04:46:15.448Z,67.1
2019-03-16T04:51:20.924Z,67.5
2019-03-16T04:56:26.053Z,69.2
2019-03-16T05:01:31.120Z,71.1
2019-03-16T05:06:36.393Z,72.5
2019-03-16T05:11:40.154Z,75.3
2019-03-16T05:16:45.424Z,76.8
2019-03-16T05:21:50.640Z,77.6
2019-03-16T05:26:56.018Z,77.5
2019-03-16T05:32:01.449Z,77.1
2019-03-16T05:37:06.726Z,77.2
2019-03-16T05:42:11.929Z,77.3
2019-03-16T05:47:17.381Z,77
2019-03-16T05:52:22.844Z,77.5
2019-03-16T05:57:28.165Z,78.2
2019-03-16T06:02:33.190Z,79
2019-03-16T06:07:38.613Z,79.4
2019-03-16T06:12:42.430Z,80.5
2019-03-16T06:17:47.748Z,81
2019-03-16T06:22:52.898Z,81.5
2019-03-16T06:27:58.067Z,82.9
2019-03-16T06:33:03.540Z,82.2
2019-03-16T06:38:08.846Z,82.2
2019-03-16T06:43:13.848Z,79.5
2019-03-16T06:48:19.353Z,76.7
2019-03-16T06:53:24.404Z,74.5
2019-03-16T06:58:24.610Z,75.1
2019-03-16T07:03:29.501Z,71.5
2019-03-16T07:08:35.976Z,69.3
2019-03-16T07:13:41.235Z,69.3
2019-03-16T07:19:00.062Z,67.6
2019-03-16T07:23:55.190Z,67.6
2019-03-16T07:29:01.197Z,65.9
2019-03-16T07:34:06.447Z,65.9
2019-03-16T07:39:11.902Z,66.2
2019-03-16T07:44:17.340Z,65.2
2019-03-16T07:49:22.953Z,62.5
2019-03-16T07:54:31.029Z,62.4
2019-03-16T07:59:39.920Z,59.3
2019-03-16T08:04:46.211Z,58
2019-03-16T08:09:49.910Z,57.9
2019-03-16T08:14:55.079Z,54.7
2019-03-16T08:20:00.611Z,53.7
2019-03-16T08:25:05.661Z,52.3
2019-03-16T08:30:10.916Z,54.2
2019-03-16T08:35:16.261Z,54
2019-03-16T08:40:21.583Z,53.1
2019-03-16T08:45:26.799Z,52.6
2019-03-16T08:50:32.078Z,53.4
2019-03-16T08:55:37.197Z,54
2019-03-16T09:00:42.572Z,50.9
2019-03-16T09:05:48.088Z,50.2
2019-03-16T09:10:53.480Z,47.9
2019-03-16T09:15:58.827Z,46.9
2019-03-16T09:21:04.045Z,45.8
2019-03-16T09:26:09.390Z,46.4
2019-03-16T09:31:17.055Z,42.4
2019-03-16T09:36:22.785Z,42.4
2019-03-16T09:41:28.068Z,41.1
2019-03-16T09:46:33.444Z,40.5
2019-03-16T09:51:37.579Z,43.1
2019-03-16T09:56:41.559Z,45
2019-03-16T10:01:47.371Z,47.4
2019-03-16T10:06:52.968Z,49
2019-03-16T10:11:58.249Z,49
2019-03-16T10:17:03.468Z,49.8
2019-03-16T10:22:09.198Z,51.4
2019-03-16T10:27:14.341Z,51.5
2019-03-16T10:32:20.282Z,53.5
2019-03-16T10:37:26.137Z,54.6
2019-03-16T10:42:31.311Z,54.6
2019-03-16T10:47:34.880Z,54.3
2019-03-16T10:52:40.691Z,53.3
2019-03-16T10:57:49.253Z,53.2
2019-03-16T11:02:54.507Z,53.1
2019-03-16T11:07:59.727Z,51.6
2019-03-16T11:13:05.215Z,52.8
2019-03-16T11:18:10.406Z,53.1
2019-03-16T11:23:15.753Z,52.2
2019-03-16T11:28:21.600Z,50.7
2019-03-16T11:33:26.050Z,50.3
2019-03-16T11:38:31.609Z,50.7
2019-03-16T11:43:37.267Z,50.2
2019-03-16T11:48:42.334Z,50.2
2019-03-16T11:53:47.700Z,50.6
2019-03-16T11:58:52.854Z,50.9
2019-03-16T12:03:58.205Z,51
2019-03-16T12:09:03.872Z,50.9
2019-03-16T12:14:09.418Z,53.3
2019-03-16T12:19:14.545Z,53.4
2019-03-16T12:24:19.690Z,51.1
2019-03-16T12:29:36.454Z,52.7
2019-03-16T12:34:31.608Z,52.6
2019-03-16T12:39:38.374Z,51.9
2019-03-16T12:44:43.871Z,51.9
2019-03-16T12:49:49.232Z,51.7
2019-03-16T12:54:54.350Z,51.6
2019-03-16T12:59:59.494Z,52.6
2019-03-16T13:05:04.871Z,53
2019-03-16T13:10:10.436Z,53.5
2019-03-16T13:15:15.617Z,53.4
2019-03-16T13:20:20.855Z,53.2
2019-03-16T13:25:26.180Z,53.2
2019-03-16T13:30:31.376Z,53
2019-03-16T13:35:36.796Z,53.3
2019-03-16T13:40:42.511Z,53
2019-03-16T13:45:47.925Z,53
2019-03-16T13:50:52.981Z,53.5
2019-03-16T13:55:58.937Z,53.8
2019-03-16T14:01:04.108Z,53.2
2019-03-16T14:06:10.274Z,53.7
2019-03-16T14:11:15.527Z,53.6
2019-03-16T14:16:20.869Z,53.3
2019-03-16T14:21:26.032Z,53
2019-03-16T14:26:31.661Z,53.3
2019-03-16T14:31:36.977Z,53.2
2019-03-16T14:36:42.442Z,54.1
2019-03-16T14:41:46.475Z,54.4
2019-03-16T14:46:51.945Z,54.4
2019-03-16T14:51:56.878Z,54.5
2019-03-16T14:57:04.665Z,54.5
2019-03-16T15:02:10.188Z,54.6
2019-03-16T15:07:14.300Z,54.7
2019-03-16T15:12:19.887Z,54.4
2019-03-16T15:17:28.209Z,55
2019-03-16T15:22:33.360Z,54.9
2019-03-16T15:27:37.895Z,54.9
2019-03-16T15:32:42.960Z,55
2019-03-16T15:37:48.183Z,55
2019-03-16T15:42:53.672Z,54.8
2019-03-16T15:47:59.342Z,54.9
2019-03-16T15:53:04.426Z,54.9
2019-03-16T16:03:14.672Z,55.4
2019-03-16T16:08:22.238Z,56.3
2019-03-16T16:13:27.319Z,56.3
2019-03-16T16:18:32.734Z,56.6
2019-03-16T16:23:38.107Z,56.8
2019-03-16T16:28:42.555Z,57.5
2019-03-16T16:33:47.914Z,57.4
2019-03-16T16:38:51.593Z,57.8
2019-03-16T16:43:56.623Z,58
2019-03-16T16:49:02.159Z,58.5
2019-03-16T16:54:08.328Z,59
2019-03-16T16:59:13.575Z,59.4
2019-03-16T17:04:18.905Z,59.8
2019-03-16T17:09:24.452Z,60.3
2019-03-16T17:14:29.881Z,60.3
2019-03-16T17:19:35.136Z,60.6
2019-03-16T17:24:40.465Z,60.9
2019-03-16T17:29:46.488Z,61.5
2019-03-16T17:34:51.796Z,61.5
2019-03-16T17:39:55.616Z,62.1
2019-03-16T17:45:00.790Z,62.3
2019-03-16T17:50:06.724Z,62.8
2019-03-16T17:55:11.929Z,62.8
2019-03-16T18:00:17.369Z,63.2
2019-03-16T18:05:22.631Z,63.6
2019-03-16T18:10:28.276Z,63.6
2019-03-16T18:15:33.595Z,63.8
2019-03-16T18:20:39.132Z,63.9
2019-03-16T18:25:44.342Z,63.8
2019-03-16T18:30:49.854Z,64
2019-03-16T18:35:55.167Z,64.1
2019-03-16T18:41:00.590Z,64
2019-03-16T18:46:05.783Z,64
2019-03-16T18:51:11.148Z,64
2019-03-16T18:56:16.558Z,64.3
2019-03-16T19:01:21.914Z,64.3
2019-03-16T19:06:27.288Z,64.7
2019-03-16T19:11:31.547Z,65
2019-03-16T19:16:36.823Z,65.3
2019-03-16T19:21:44.760Z,65.7
2019-03-16T19:26:54.085Z,66.4
2019-03-16T19:31:59.509Z,66.2
2019-03-16T19:37:04.601Z,66.1
2019-03-16T19:42:09.933Z,65.9
2019-03-16T19:47:15.035Z,66.2
2019-03-16T19:52:20.236Z,66.3
2019-03-16T19:57:25.542Z,66.8
2019-03-16T20:02:31.149Z,67.1
2019-03-16T20:07:34.849Z,67.2
2019-03-16T20:12:40.638Z,67.4
2019-03-16T20:17:46.068Z,67.4
2019-03-16T20:22:51.651Z,67.4
2019-03-16T20:27:55.525Z,67.6
2019-03-16T20:33:06.751Z,67.5
2019-03-16T20:38:02.044Z,67.6
2019-03-16T20:43:05.724Z,67.8
2019-03-16T20:48:10.908Z,67.8
2019-03-16T20:53:16.547Z,68.7
2019-03-16T20:58:21.765Z,68.7
2019-03-16T21:03:27.331Z,69.2
2019-03-16T21:08:32.528Z,69.9
2019-03-16T21:13:38.814Z,70.6
2019-03-16T21:18:44.069Z,70.6
2019-03-16T21:23:49.848Z,70.7
2019-03-16T21:28:55.136Z,70.7
2019-03-16T21:34:00.615Z,70.5
2019-03-16T21:39:05.950Z,70.8
2019-03-16T21:44:11.836Z,69
2019-03-16T21:49:15.663Z,69
2019-03-16T21:54:21.173Z,68.5
2019-03-16T21:59:30.167Z,67.9
2019-03-16T22:04:35.412Z,67.9
2019-03-16T22:09:40.535Z,67.8
2019-03-16T22:14:45.922Z,67.7
2019-03-16T22:19:51.208Z,67.7
2019-03-16T22:24:54.968Z,67.6
2019-03-16T22:30:00.118Z,67.7
2019-03-16T22:35:08.803Z,67.8
2019-03-16T22:40:14.694Z,67.8
2019-03-16T22:45:19.753Z,67.7
2019-03-16T22:50:25.158Z,67.9
2019-03-16T22:55:30.371Z,67.9
2019-03-16T23:00:38.178Z,67.7
2019-03-16T23:05:41.898Z,67.6
2019-03-16T23:10:47.050Z,67.2
2019-03-16T23:15:52.159Z,66.8
2019-03-16T23:20:57.156Z,66.5
2019-03-16T23:26:02.468Z,66.1
2019-03-16T23:31:07.636Z,65.5
2019-03-16T23:36:48.577Z,64.9
2019-03-16T23:41:53.929Z,65
2019-03-16T23:46:59.213Z,64.8
2019-03-16T23:52:04.463Z,65.1
2019-03-16T23:57:09.736Z,65.2
